createdAt,value
2019-01-26T00:00:45.853Z,3.00
2019-01-26T00:03:12.535Z,3.00
2019-01-26T00:05:38.533Z,3.00
2019-01-26T00:08:05.265Z,3.00
2019-01-26T00:10:31.251Z,3.00
2019-01-26T00:12:57.211Z,3.00
2019-01-26T00:15:23.211Z,3.30
2019-01-26T00:17:49.166Z,3.00
2019-01-26T00:20:15.211Z,3.00
2019-01-26T00:22:41.159Z,2.90
2019-01-26T00:25:07.131Z,3.00
2019-01-26T00:27:33.865Z,3.00
2019-01-26T00:29:59.836Z,3.00
2019-01-26T00:32:25.876Z,3.00
2019-01-26T00:34:51.978Z,2.90
2019-01-26T00:37:18.068Z,2.90
2019-01-26T00:39:45.167Z,2.90
2019-01-26T00:42:10.834Z,2.90
2019-01-26T00:44:36.811Z,3.00
2019-01-26T00:47:02.811Z,3.00
2019-01-26T00:49:28.774Z,3.00
2019-01-26T00:51:54.765Z,3.00
2019-01-26T00:54:20.716Z,3.10
2019-01-26T00:56:46.713Z,3.00
2019-01-26T00:59:12.696Z,2.90
2019-01-26T01:01:38.663Z,2.90
2019-01-26T01:04:04.639Z,2.90
2019-01-26T01:06:31.353Z,2.80
2019-01-26T01:08:57.327Z,2.80
2019-01-26T01:11:23.291Z,2.80
2019-01-26T01:13:49.308Z,2.80
2019-01-26T01:16:15.259Z,2.80
2019-01-26T01:18:42.033Z,2.80
2019-01-26T01:21:07.995Z,2.80
2019-01-26T01:23:34.017Z,2.80
2019-01-26T01:25:59.997Z,2.90
2019-01-26T01:28:26.763Z,3.00
2019-01-26T01:30:52.712Z,3.10
2019-01-26T01:33:18.674Z,3.00
2019-01-26T01:35:44.634Z,3.00
2019-01-26T01:38:10.572Z,3.00
2019-01-26T01:40:36.545Z,3.10
2019-01-26T01:43:02.509Z,3.20
2019-01-26T01:45:28.503Z,3.30
2019-01-26T01:47:54.481Z,3.10
2019-01-26T01:50:20.462Z,3.10
2019-01-26T01:52:46.439Z,3.10
2019-01-26T01:55:13.161Z,3.10
2019-01-26T01:57:39.115Z,3.10
2019-01-26T02:00:05.138Z,3.20
2019-01-26T02:02:31.136Z,3.20
2019-01-26T02:04:57.135Z,3.20
2019-01-26T02:07:23.100Z,3.20
2019-01-26T02:09:49.818Z,3.20
2019-01-26T02:12:16.540Z,3.20
2019-01-26T02:14:43.251Z,3.20
2019-01-26T02:17:09.224Z,3.20
2019-01-26T02:19:35.947Z,3.30
2019-01-26T02:22:01.965Z,3.30
2019-01-26T02:24:27.942Z,3.30
2019-01-26T02:26:53.940Z,3.40
2019-01-26T02:29:20.651Z,3.40
2019-01-26T02:31:46.635Z,3.40
2019-01-26T02:34:12.612Z,3.40
2019-01-26T02:36:38.562Z,3.50
2019-01-26T02:39:05.266Z,3.60
2019-01-26T02:41:31.227Z,3.60
2019-01-26T02:43:57.195Z,3.60
2019-01-26T02:46:23.156Z,3.60
2019-01-26T02:48:49.886Z,3.70
2019-01-26T02:51:16.598Z,3.70
2019-01-26T02:53:42.615Z,3.70
2019-01-26T02:56:08.580Z,3.70
2019-01-26T02:58:34.600Z,3.70
2019-01-26T03:01:01.322Z,3.70
2019-01-26T03:03:27.339Z,3.70
2019-01-26T03:05:54.073Z,3.70
2019-01-26T03:08:20.054Z,3.70
2019-01-26T03:10:46.049Z,3.80
2019-01-26T03:13:12.741Z,3.90
2019-01-26T03:15:38.739Z,3.90
2019-01-26T03:18:04.711Z,3.80
2019-01-26T03:20:30.707Z,3.90
2019-01-26T03:22:56.700Z,3.80
2019-01-26T03:25:22.704Z,3.80
2019-01-26T03:27:49.411Z,3.90
2019-01-26T03:30:15.417Z,3.80
2019-01-26T03:32:41.372Z,3.90
2019-01-26T03:35:07.352Z,4.00
2019-01-26T03:37:33.325Z,4.00
2019-01-26T03:39:59.275Z,4.10
2019-01-26T03:42:25.251Z,4.10
2019-01-26T03:44:51.215Z,4.10
2019-01-26T03:47:17.957Z,4.10
2019-01-26T03:49:43.962Z,4.10
2019-01-26T03:52:09.951Z,4.20
2019-01-26T03:54:35.906Z,4.30
2019-01-26T03:57:02.645Z,4.30
2019-01-26T03:59:29.361Z,4.30
2019-01-26T04:01:55.330Z,4.30
2019-01-26T04:04:21.314Z,4.40
2019-01-26T04:06:47.311Z,4.40
2019-01-26T04:09:13.279Z,4.40
2019-01-26T04:11:39.233Z,4.50
2019-01-26T04:14:05.245Z,4.50
2019-01-26T04:16:31.928Z,4.60
2019-01-26T04:18:57.949Z,4.50
2019-01-26T04:21:23.896Z,4.60
2019-01-26T04:23:49.905Z,4.60
2019-01-26T04:26:15.885Z,4.60
2019-01-26T04:28:41.860Z,4.60
2019-01-26T04:31:07.860Z,4.60
2019-01-26T04:33:33.839Z,4.60
2019-01-26T04:36:00.602Z,4.70
2019-01-26T04:38:26.598Z,4.60
2019-01-26T04:40:53.307Z,4.70
2019-01-26T04:43:19.251Z,4.70
2019-01-26T04:45:45.244Z,4.80
2019-01-26T04:48:11.206Z,4.80
2019-01-26T04:50:37.936Z,4.80
2019-01-26T04:53:03.888Z,4.80
2019-01-26T04:55:29.883Z,4.90
2019-01-26T04:57:55.856Z,4.90
2019-01-26T05:00:21.811Z,5.00
2019-01-26T05:02:47.792Z,5.00
2019-01-26T05:05:13.754Z,5.10
2019-01-26T05:07:39.750Z,5.10
2019-01-26T05:10:05.697Z,5.20
2019-01-26T05:12:31.689Z,5.20
2019-01-26T05:14:57.651Z,5.20
2019-01-26T05:17:23.639Z,5.20
2019-01-26T05:19:49.586Z,5.20
2019-01-26T05:22:15.567Z,5.30
2019-01-26T05:24:41.545Z,5.30
2019-01-26T05:27:08.185Z,5.30
2019-01-26T05:29:34.911Z,5.30
2019-01-26T05:32:00.892Z,5.30
2019-01-26T05:34:26.862Z,5.30
2019-01-26T05:36:52.841Z,5.40
2019-01-26T05:39:20.056Z,5.30
2019-01-26T05:41:44.853Z,5.20
2019-01-26T05:44:11.598Z,5.30
2019-01-26T05:46:38.305Z,5.30
2019-01-26T05:49:04.294Z,5.30
2019-01-26T05:51:30.258Z,5.30
2019-01-26T05:53:56.250Z,5.40
2019-01-26T05:56:22.237Z,5.40
2019-01-26T05:58:48.963Z,5.50
2019-01-26T06:01:14.904Z,5.50
2019-01-26T06:03:40.868Z,5.50
2019-01-26T06:06:06.854Z,5.40
2019-01-26T06:08:32.813Z,5.50
2019-01-26T06:10:58.822Z,5.40
2019-01-26T06:13:24.787Z,5.40
2019-01-26T06:15:50.774Z,5.30
2019-01-26T06:18:17.068Z,5.50
2019-01-26T06:20:42.809Z,5.40
2019-01-26T06:23:08.755Z,5.40
2019-01-26T06:25:34.734Z,5.40
2019-01-26T06:28:00.707Z,5.40
2019-01-26T06:30:26.676Z,5.40
2019-01-26T06:32:53.402Z,5.50
2019-01-26T06:35:20.110Z,5.50
2019-01-26T06:37:46.097Z,5.50
2019-01-26T06:40:12.053Z,5.60
2019-01-26T06:42:38.025Z,5.60
2019-01-26T06:45:04.731Z,5.70
2019-01-26T06:47:30.711Z,5.70
2019-01-26T06:49:56.658Z,5.70
2019-01-26T06:52:22.643Z,5.90
2019-01-26T06:54:48.604Z,5.80
2019-01-26T06:57:14.563Z,5.80
2019-01-26T06:59:41.280Z,5.90
2019-01-26T07:02:07.214Z,5.90
2019-01-26T07:04:33.189Z,5.90
2019-01-26T07:06:59.137Z,5.90
2019-01-26T07:09:25.116Z,5.90
2019-01-26T07:11:51.081Z,5.90
2019-01-26T07:14:17.090Z,5.90
2019-01-26T07:16:43.048Z,5.90
2019-01-26T07:19:09.792Z,5.90
2019-01-26T07:21:36.513Z,5.90
2019-01-26T07:24:02.508Z,5.90
2019-01-26T07:26:28.483Z,5.90
2019-01-26T07:28:54.452Z,5.90
2019-01-26T07:31:20.427Z,5.90
2019-01-26T07:33:46.382Z,5.90
2019-01-26T07:36:12.349Z,6.00
2019-01-26T07:38:38.299Z,6.00
2019-01-26T07:41:04.293Z,6.00
2019-01-26T07:43:30.239Z,6.00
2019-01-26T07:45:56.223Z,6.00
2019-01-26T07:48:22.192Z,6.00
2019-01-26T07:50:48.926Z,6.10
2019-01-26T07:53:14.881Z,6.10
2019-01-26T07:55:40.843Z,6.10
2019-01-26T07:58:06.842Z,6.10
2019-01-26T08:00:32.814Z,6.10
2019-01-26T08:02:59.535Z,6.10
2019-01-26T08:05:25.513Z,6.10
2019-01-26T08:07:51.502Z,6.20
2019-01-26T08:10:18.211Z,6.20
2019-01-26T08:12:44.217Z,6.10
2019-01-26T08:15:10.199Z,6.10
2019-01-26T08:17:36.943Z,6.20
2019-01-26T08:20:02.918Z,6.10
2019-01-26T08:22:28.896Z,6.20
2019-01-26T08:24:55.590Z,6.10
2019-01-26T08:27:21.553Z,6.10
2019-01-26T08:29:48.299Z,6.20
2019-01-26T08:32:14.264Z,6.20
2019-01-26T08:34:40.298Z,6.20
2019-01-26T08:37:07.031Z,6.20
2019-01-26T08:39:33.011Z,6.20
2019-01-26T08:41:58.980Z,6.30
2019-01-26T08:44:24.971Z,6.30
2019-01-26T08:46:50.931Z,6.30
2019-01-26T08:49:16.901Z,6.20
2019-01-26T08:51:42.879Z,6.20
2019-01-26T08:54:08.877Z,6.30
2019-01-26T08:56:34.836Z,6.20
2019-01-26T08:59:01.578Z,6.30
2019-01-26T09:01:27.562Z,6.30
2019-01-26T09:03:54.261Z,6.30
2019-01-26T09:06:20.972Z,6.30
2019-01-26T09:08:46.938Z,6.30
2019-01-26T09:11:12.903Z,6.40
2019-01-26T09:13:38.858Z,6.30
2019-01-26T09:16:05.591Z,6.40
2019-01-26T09:18:38.575Z,6.30
2019-01-26T09:20:58.625Z,6.30
2019-01-26T09:23:24.590Z,6.30
2019-01-26T09:25:51.305Z,6.30
2019-01-26T09:28:17.242Z,6.30
2019-01-26T09:30:43.218Z,6.40
2019-01-26T09:33:09.177Z,6.30
2019-01-26T09:35:35.158Z,6.40
2019-01-26T09:38:01.105Z,6.40
2019-01-26T09:40:27.097Z,6.40
2019-01-26T09:42:53.057Z,6.30
2019-01-26T09:45:19.087Z,6.30
2019-01-26T09:47:45.037Z,6.30
2019-01-26T09:50:11.727Z,6.40
2019-01-26T09:52:37.711Z,6.30
2019-01-26T09:55:03.668Z,6.30
2019-01-26T09:57:29.679Z,6.40
2019-01-26T09:59:55.629Z,6.40
2019-01-26T10:02:21.615Z,6.40
2019-01-26T10:04:47.564Z,6.40
2019-01-26T10:07:13.542Z,6.40
2019-01-26T10:09:39.502Z,6.40
2019-01-26T10:12:05.476Z,6.40
2019-01-26T10:14:32.179Z,6.40
2019-01-26T10:16:58.150Z,6.40
2019-01-26T10:19:24.111Z,6.40
2019-01-26T10:21:50.056Z,6.50
2019-01-26T10:24:16.033Z,6.50
2019-01-26T10:26:42.008Z,6.50
2019-01-26T10:29:07.992Z,6.50
2019-01-26T10:31:33.947Z,6.50
2019-01-26T10:33:59.936Z,6.60
2019-01-26T10:36:25.913Z,6.60
2019-01-26T10:38:51.883Z,6.50
2019-01-26T10:41:17.848Z,6.50
2019-01-26T10:43:43.846Z,6.50
2019-01-26T10:46:09.801Z,6.50
2019-01-26T10:48:35.782Z,6.50
2019-01-26T10:51:01.752Z,6.50
2019-01-26T10:53:28.450Z,6.50
2019-01-26T10:55:54.433Z,6.50
2019-01-26T10:58:20.388Z,6.60
2019-01-26T11:00:46.382Z,6.60
2019-01-26T11:03:12.349Z,6.60
2019-01-26T11:05:38.342Z,6.60
2019-01-26T11:08:04.312Z,6.60
2019-01-26T11:10:30.307Z,6.70
2019-01-26T11:12:57.067Z,6.70
2019-01-26T11:15:23.060Z,6.60
2019-01-26T11:17:49.038Z,6.70
2019-01-26T11:20:15.774Z,6.70
2019-01-26T11:22:41.759Z,6.60
2019-01-26T11:25:07.727Z,6.70
2019-01-26T11:27:34.464Z,6.70
2019-01-26T11:30:01.176Z,6.70
2019-01-26T11:32:27.176Z,6.70
2019-01-26T11:34:53.133Z,6.70
2019-01-26T11:37:19.142Z,6.70
2019-01-26T11:39:45.107Z,6.70
2019-01-26T11:42:11.834Z,6.70
2019-01-26T11:44:38.513Z,6.70
2019-01-26T11:47:04.496Z,6.70
2019-01-26T11:49:31.211Z,6.80
2019-01-26T11:51:57.205Z,6.80
2019-01-26T11:54:23.196Z,6.80
2019-01-26T11:56:49.922Z,6.70
2019-01-26T11:59:16.656Z,6.80
2019-01-26T12:01:42.609Z,6.80
2019-01-26T12:04:08.588Z,6.70
2019-01-26T12:06:34.551Z,6.70
2019-01-26T12:09:01.261Z,6.70
2019-01-26T12:11:27.975Z,6.60
2019-01-26T12:13:53.972Z,6.60
2019-01-26T12:16:26.705Z,6.60
2019-01-26T12:18:45.957Z,6.60
2019-01-26T12:21:11.927Z,6.60
2019-01-26T12:23:38.000Z,6.60
2019-01-26T12:26:03.964Z,6.60
2019-01-26T12:28:30.655Z,6.70
2019-01-26T12:30:56.627Z,6.60
2019-01-26T12:33:22.605Z,6.70
2019-01-26T12:35:48.576Z,6.70
2019-01-26T12:38:14.594Z,6.70
2019-01-26T12:40:41.316Z,6.70
2019-01-26T12:43:07.275Z,6.70
2019-01-26T12:45:33.291Z,6.70
2019-01-26T12:47:59.301Z,6.60
2019-01-26T12:50:26.005Z,6.60
2019-01-26T12:52:51.985Z,6.60
2019-01-26T12:55:17.978Z,6.50
2019-01-26T12:57:44.698Z,6.50
2019-01-26T13:00:10.662Z,6.50
2019-01-26T13:02:36.720Z,6.50
2019-01-26T13:05:03.577Z,6.50
2019-01-26T13:07:29.570Z,6.50
2019-01-26T13:09:55.533Z,6.50
2019-01-26T13:12:21.507Z,6.50
2019-01-26T13:14:48.208Z,6.50
2019-01-26T13:17:14.188Z,6.50
2019-01-26T13:19:40.141Z,6.50
2019-01-26T13:22:06.132Z,6.50
2019-01-26T13:24:32.100Z,6.50
2019-01-26T13:26:58.827Z,6.40
2019-01-26T13:29:24.829Z,6.50
2019-01-26T13:31:50.806Z,6.50
2019-01-26T13:34:17.541Z,6.40
2019-01-26T13:36:44.252Z,6.40
2019-01-26T13:39:10.241Z,6.40
2019-01-26T13:41:36.202Z,6.40
2019-01-26T13:44:02.179Z,6.40
2019-01-26T13:46:28.135Z,6.40
2019-01-26T13:48:54.146Z,6.40
2019-01-26T13:51:20.114Z,6.40
2019-01-26T13:53:46.846Z,6.40
2019-01-26T13:56:12.783Z,6.40
2019-01-26T13:58:39.729Z,6.40
2019-01-26T14:01:06.431Z,6.40
2019-01-26T14:03:32.412Z,6.40
2019-01-26T14:05:58.396Z,6.40
2019-01-26T14:08:24.341Z,6.40
2019-01-26T14:10:50.319Z,6.40
2019-01-26T14:13:16.289Z,6.40
2019-01-26T14:15:42.290Z,6.50
2019-01-26T14:18:08.975Z,6.50
2019-01-26T14:20:34.961Z,6.40
2019-01-26T14:23:01.648Z,6.50
2019-01-26T14:25:27.631Z,6.50
2019-01-26T14:27:53.616Z,6.50
2019-01-26T14:30:19.671Z,6.50
2019-01-26T14:32:52.321Z,6.50
2019-01-26T14:35:12.393Z,6.50
2019-01-26T14:37:38.381Z,6.50
2019-01-26T14:40:04.330Z,6.50
2019-01-26T14:42:37.321Z,6.50
2019-01-26T14:45:03.282Z,6.50
2019-01-26T14:47:29.250Z,6.50
2019-01-26T14:49:58.577Z,6.50
2019-01-26T14:52:21.312Z,6.50
2019-01-26T14:54:47.412Z,6.50
2019-01-26T14:57:13.394Z,6.50
2019-01-26T14:59:39.353Z,6.50
2019-01-26T15:02:05.334Z,6.50
2019-01-26T15:04:32.051Z,6.50
2019-01-26T15:06:58.058Z,6.50
2019-01-26T15:09:24.022Z,6.50
2019-01-26T15:11:49.987Z,6.50
2019-01-26T15:14:15.964Z,6.50
2019-01-26T15:16:41.920Z,6.50
2019-01-26T15:19:07.931Z,6.50
2019-01-26T15:21:34.627Z,6.50
2019-01-26T15:24:00.600Z,6.40
2019-01-26T15:26:27.318Z,6.40
2019-01-26T15:28:54.436Z,6.40
2019-01-26T15:31:19.365Z,6.40
2019-01-26T15:33:45.344Z,6.40
2019-01-26T15:36:11.297Z,6.40
2019-01-26T15:38:37.287Z,6.40
2019-01-26T15:41:03.235Z,6.40
2019-01-26T15:43:29.182Z,6.40
2019-01-26T15:45:55.897Z,6.40
2019-01-26T15:48:21.879Z,6.30
2019-01-26T15:50:47.866Z,6.20
2019-01-26T15:53:14.557Z,6.30
2019-01-26T15:55:40.544Z,6.30
2019-01-26T15:58:06.516Z,6.30
2019-01-26T16:00:32.507Z,6.30
2019-01-26T16:02:58.484Z,6.30
2019-01-26T16:05:24.479Z,6.30
2019-01-26T16:07:50.461Z,6.30
2019-01-26T16:10:16.456Z,6.20
2019-01-26T16:12:42.420Z,6.30
2019-01-26T16:15:09.801Z,6.20
2019-01-26T16:17:35.166Z,6.20
2019-01-26T16:20:01.171Z,6.20
2019-01-26T16:22:27.903Z,6.20
2019-01-26T16:24:53.879Z,6.20
2019-01-26T16:27:19.887Z,6.10
2019-01-26T16:29:45.909Z,6.10
2019-01-26T16:32:11.898Z,6.10
2019-01-26T16:34:37.844Z,6.10
2019-01-26T16:37:04.588Z,6.10
2019-01-26T16:39:31.284Z,6.10
2019-01-26T16:41:57.289Z,6.10
2019-01-26T16:44:23.272Z,6.10
2019-01-26T16:46:49.239Z,6.10
2019-01-26T16:49:15.244Z,6.10
2019-01-26T16:51:41.213Z,6.00
2019-01-26T16:54:07.205Z,6.00
2019-01-26T16:56:33.192Z,6.00
2019-01-26T16:58:59.914Z,6.00
2019-01-26T17:01:26.628Z,6.00
2019-01-26T17:03:52.618Z,6.00
2019-01-26T17:06:18.586Z,6.00
2019-01-26T17:08:44.561Z,6.00
2019-01-26T17:11:10.573Z,5.90
2019-01-26T17:13:36.589Z,5.90
2019-01-26T17:16:02.588Z,5.90
2019-01-26T17:18:29.274Z,5.90
2019-01-26T17:20:55.276Z,5.80
2019-01-26T17:23:21.267Z,5.80
2019-01-26T17:25:47.248Z,5.80
2019-01-26T17:28:13.237Z,5.70
2019-01-26T17:30:39.931Z,6.00
2019-01-26T17:33:07.530Z,5.70
2019-01-26T17:35:32.724Z,5.70
2019-01-26T17:37:58.746Z,5.70
2019-01-26T17:40:25.455Z,5.70
2019-01-26T17:42:51.453Z,5.70
2019-01-26T17:45:17.411Z,5.70
2019-01-26T17:47:43.407Z,5.60
2019-01-26T17:50:09.369Z,5.60
2019-01-26T17:52:40.402Z,5.60
2019-01-26T17:55:02.126Z,5.50
2019-01-26T17:57:28.124Z,5.50
2019-01-26T17:59:54.087Z,5.50
2019-01-26T18:02:20.054Z,5.50
2019-01-26T18:04:46.784Z,5.40
2019-01-26T18:07:12.744Z,5.40
2019-01-26T18:09:38.934Z,5.50
2019-01-26T18:12:05.035Z,5.40
2019-01-26T18:14:31.811Z,5.50
2019-01-26T18:16:57.809Z,5.40
2019-01-26T18:19:23.845Z,5.50
2019-01-26T18:21:49.817Z,5.50
2019-01-26T18:24:15.788Z,5.50
2019-01-26T18:26:41.767Z,5.40
2019-01-26T18:29:07.739Z,5.40
2019-01-26T18:31:33.727Z,5.40
2019-01-26T18:34:00.456Z,5.40
2019-01-26T18:36:26.494Z,5.40
2019-01-26T18:38:53.193Z,5.40
2019-01-26T18:41:19.183Z,5.30
2019-01-26T18:43:45.151Z,5.40
2019-01-26T18:46:11.129Z,5.40
2019-01-26T18:48:37.097Z,5.40
2019-01-26T18:51:03.087Z,5.40
2019-01-26T18:53:29.089Z,5.40
2019-01-26T18:55:55.073Z,5.40
2019-01-26T18:58:21.072Z,5.40
2019-01-26T19:00:47.035Z,5.40
2019-01-26T19:03:13.777Z,5.40
2019-01-26T19:05:40.477Z,5.40
2019-01-26T19:08:06.509Z,5.40
2019-01-26T19:10:32.465Z,5.40
2019-01-26T19:12:59.198Z,5.40
2019-01-26T19:15:25.162Z,5.40
2019-01-26T19:17:51.175Z,5.40
2019-01-26T19:20:17.140Z,5.50
2019-01-26T19:22:43.118Z,5.50
2019-01-26T19:25:09.072Z,5.40
2019-01-26T19:27:35.064Z,5.50
2019-01-26T19:30:01.056Z,5.50
2019-01-26T19:32:27.071Z,5.50
2019-01-26T19:34:53.038Z,5.40
2019-01-26T19:37:19.073Z,5.50
2019-01-26T19:39:45.063Z,5.40
2019-01-26T19:42:11.780Z,5.40
2019-01-26T19:44:37.794Z,5.40
2019-01-26T19:47:03.743Z,5.40
2019-01-26T19:49:30.500Z,5.40
2019-01-26T19:51:56.489Z,5.40
2019-01-26T19:54:22.478Z,5.40
2019-01-26T19:56:48.443Z,5.40
2019-01-26T19:59:14.422Z,5.40
2019-01-26T20:01:40.386Z,5.40
2019-01-26T20:04:06.386Z,5.40
2019-01-26T20:06:32.357Z,5.40
2019-01-26T20:08:58.372Z,5.40
2019-01-26T20:11:25.076Z,5.40
2019-01-26T20:13:51.072Z,5.40
2019-01-26T20:16:17.021Z,5.40
2019-01-26T20:18:43.034Z,5.50
2019-01-26T20:21:09.022Z,5.40
2019-01-26T20:23:35.038Z,5.40
2019-01-26T20:26:01.781Z,5.40
2019-01-26T20:28:27.765Z,5.40
2019-01-26T20:30:53.774Z,5.40
2019-01-26T20:33:19.735Z,5.40
2019-01-26T20:35:46.490Z,5.40
2019-01-26T20:38:13.211Z,5.40
2019-01-26T20:40:39.928Z,5.40
2019-01-26T20:43:05.908Z,5.40
2019-01-26T20:45:31.903Z,5.50
2019-01-26T20:47:57.871Z,5.40
2019-01-26T20:50:23.973Z,5.50
2019-01-26T20:52:50.019Z,5.50
2019-01-26T20:55:16.045Z,5.50
2019-01-26T20:57:42.828Z,5.60
2019-01-26T21:00:08.815Z,5.50
2019-01-26T21:02:34.818Z,5.60
2019-01-26T21:05:00.785Z,5.60
2019-01-26T21:07:26.782Z,5.60
2019-01-26T21:09:52.768Z,5.60
2019-01-26T21:12:18.790Z,5.60
2019-01-26T21:14:44.778Z,5.60
2019-01-26T21:17:10.770Z,5.60
2019-01-26T21:19:36.769Z,5.70
2019-01-26T21:22:02.783Z,5.60
2019-01-26T21:24:29.514Z,5.70
2019-01-26T21:26:56.209Z,5.70
2019-01-26T21:29:22.213Z,5.70
2019-01-26T21:31:48.189Z,5.70
2019-01-26T21:34:14.178Z,5.70
2019-01-26T21:36:40.163Z,5.70
2019-01-26T21:39:06.174Z,5.70
2019-01-26T21:41:32.871Z,5.80
2019-01-26T21:43:58.867Z,5.80
2019-01-26T21:46:24.827Z,5.80
2019-01-26T21:48:50.840Z,5.90
2019-01-26T21:51:16.801Z,5.80
2019-01-26T21:53:43.516Z,5.90
2019-01-26T21:56:09.490Z,5.90
2019-01-26T21:58:35.443Z,5.90
2019-01-26T22:01:01.433Z,5.90
2019-01-26T22:03:27.388Z,5.90
2019-01-26T22:05:53.398Z,5.90
2019-01-26T22:08:19.367Z,6.00
2019-01-26T22:10:46.106Z,6.00
2019-01-26T22:13:12.823Z,6.00
2019-01-26T22:15:38.820Z,6.00
2019-01-26T22:18:04.787Z,6.00
2019-01-26T22:20:30.767Z,6.00
2019-01-26T22:22:56.730Z,6.10
2019-01-26T22:25:22.731Z,6.10
2019-01-26T22:27:48.681Z,6.10
2019-01-26T22:30:15.394Z,6.10
2019-01-26T22:32:41.390Z,6.10
2019-01-26T22:35:07.345Z,6.10
2019-01-26T22:37:33.335Z,6.20
2019-01-26T22:39:59.316Z,6.10
2019-01-26T22:42:26.044Z,6.20
2019-01-26T22:44:52.018Z,6.10
2019-01-26T22:47:18.009Z,6.20
2019-01-26T22:49:44.715Z,6.20
2019-01-26T22:52:10.688Z,6.20
2019-01-26T22:54:36.639Z,6.30
2019-01-26T22:57:02.678Z,6.30
2019-01-26T22:59:28.671Z,6.30
2019-01-26T23:01:54.652Z,6.20
2019-01-26T23:04:21.378Z,6.20
2019-01-26T23:06:47.328Z,6.20
2019-01-26T23:09:14.056Z,6.30
2019-01-26T23:11:40.006Z,6.30
2019-01-26T23:14:06.028Z,6.30
2019-01-26T23:16:32.016Z,6.30
2019-01-26T23:18:58.007Z,6.40
2019-01-26T23:21:23.986Z,6.40
2019-01-26T23:23:50.752Z,6.40
2019-01-26T23:26:16.735Z,6.30
2019-01-26T23:28:43.474Z,6.40
2019-01-26T23:31:10.230Z,6.30
2019-01-26T23:33:36.228Z,6.30
2019-01-26T23:36:02.239Z,6.30
2019-01-26T23:38:28.204Z,6.30
2019-01-26T23:40:54.929Z,6.30
2019-01-26T23:43:21.641Z,6.30
2019-01-26T23:45:47.650Z,6.30
2019-01-26T23:48:13.634Z,6.30
2019-01-26T23:50:39.666Z,6.30
2019-01-26T23:53:05.652Z,6.30
2019-01-26T23:55:31.603Z,6.30
2019-01-26T23:57:58.317Z,6.30
